sensor_id;sensor_type;location;lat;lon;timestamp;P1;durP1;ratioP1;P2;durP2;ratioP2
58302;SDS011;44109;52.398;7.024;2023-08-06T00:01:26;3.90;;;1.95;;
58302;SDS011;44109;52.398;7.024;2023-08-06T00:03:55;3.67;;;1.90;;
58302;SDS011;44109;52.398;7.024;2023-08-06T00:06:24;4.90;;;2.13;;
58302;SDS011;44109;52.398;7.024;2023-08-06T00:08:52;4.57;;;2.70;;
58302;SDS011;44109;52.398;7.024;2023-08-06T00:11:20;6.63;;;2.80;;
58302;SDS011;44109;52.398;7.024;2023-08-06T00:13:48;3.60;;;2.40;;
58302;SDS011;44109;52.398;7.024;2023-08-06T00:16:16;3.08;;;2.30;;
58302;SDS011;44109;52.398;7.024;2023-08-06T00:18:43;4.30;;;1.85;;
58302;SDS011;44109;52.398;7.024;2023-08-06T00:21:12;5.20;;;2.95;;
58302;SDS011;44109;52.398;7.024;2023-08-06T00:23:40;3.50;;;2.33;;
58302;SDS011;44109;52.398;7.024;2023-08-06T00:26:08;4.38;;;2.22;;
58302;SDS011;44109;52.398;7.024;2023-08-06T00:28:35;2.33;;;2.00;;
58302;SDS011;44109;52.398;7.024;2023-08-06T00:31:03;4.20;;;1.83;;
58302;SDS011;44109;52.398;7.024;2023-08-06T00:33:30;5.53;;;3.05;;
58302;SDS011;44109;52.398;7.024;2023-08-06T00:35:58;5.15;;;2.45;;
58302;SDS011;44109;52.398;7.024;2023-08-06T00:38:27;3.55;;;2.10;;
58302;SDS011;44109;52.398;7.024;2023-08-06T00:40:55;3.25;;;2.28;;
58302;SDS011;44109;52.398;7.024;2023-08-06T00:43:22;2.25;;;1.88;;
58302;SDS011;44109;52.398;7.024;2023-08-06T00:45:50;5.25;;;3.15;;
58302;SDS011;44109;52.398;7.024;2023-08-06T00:48:17;3.60;;;2.35;;
58302;SDS011;44109;52.398;7.024;2023-08-06T00:50:46;4.68;;;2.25;;
58302;SDS011;44109;52.398;7.024;2023-08-06T00:53:14;4.75;;;2.53;;
58302;SDS011;44109;52.398;7.024;2023-08-06T00:55:44;6.40;;;3.30;;
58302;SDS011;44109;52.398;7.024;2023-08-06T00:58:12;7.82;;;3.38;;
58302;SDS011;44109;52.398;7.024;2023-08-06T01:00:42;4.28;;;3.05;;
58302;SDS011;44109;52.398;7.024;2023-08-06T01:03:09;5.53;;;2.95;;
58302;SDS011;44109;52.398;7.024;2023-08-06T01:05:37;7.80;;;3.03;;
58302;SDS011;44109;52.398;7.024;2023-08-06T01:08:08;4.38;;;2.58;;
58302;SDS011;44109;52.398;7.024;2023-08-06T01:10:57;5.03;;;3.47;;
58302;SDS011;44109;52.398;7.024;2023-08-06T01:13:41;3.88;;;2.50;;
58302;SDS011;44109;52.398;7.024;2023-08-06T01:16:13;4.43;;;2.80;;
58302;SDS011;44109;52.398;7.024;2023-08-06T01:18:44;4.80;;;3.03;;
58302;SDS011;44109;52.398;7.024;2023-08-06T01:21:16;6.80;;;3.70;;
58302;SDS011;44109;52.398;7.024;2023-08-06T01:23:45;5.53;;;2.88;;
58302;SDS011;44109;52.398;7.024;2023-08-06T01:26:14;4.55;;;3.20;;
58302;SDS011;44109;52.398;7.024;2023-08-06T01:28:56;5.05;;;3.10;;
58302;SDS011;44109;52.398;7.024;2023-08-06T01:31:34;6.38;;;3.45;;
58302;SDS011;44109;52.398;7.024;2023-08-06T01:34:06;5.82;;;2.72;;
58302;SDS011;44109;52.398;7.024;2023-08-06T01:36:42;5.90;;;3.10;;
58302;SDS011;44109;52.398;7.024;2023-08-06T01:39:10;7.63;;;3.53;;
58302;SDS011;44109;52.398;7.024;2023-08-06T01:41:38;7.93;;;3.13;;
58302;SDS011;44109;52.398;7.024;2023-08-06T01:44:06;6.80;;;2.88;;
58302;SDS011;44109;52.398;7.024;2023-08-06T01:46:33;5.80;;;3.47;;
58302;SDS011;44109;52.398;7.024;2023-08-06T01:49:01;7.07;;;3.20;;
58302;SDS011;44109;52.398;7.024;2023-08-06T01:51:28;7.28;;;3.83;;
58302;SDS011;44109;52.398;7.024;2023-08-06T01:53:57;5.22;;;2.65;;
58302;SDS011;44109;52.398;7.024;2023-08-06T01:56:25;4.88;;;3.05;;
58302;SDS011;44109;52.398;7.024;2023-08-06T01:58:53;5.70;;;2.97;;
58302;SDS011;44109;52.398;7.024;2023-08-06T02:01:20;3.75;;;2.35;;
58302;SDS011;44109;52.398;7.024;2023-08-06T02:03:48;5.25;;;2.38;;
58302;SDS011;44109;52.398;7.024;2023-08-06T02:06:15;3.75;;;3.25;;
58302;SDS011;44109;52.398;7.024;2023-08-06T02:08:43;5.60;;;3.25;;
58302;SDS011;44109;52.398;7.024;2023-08-06T02:11:12;5.15;;;2.90;;
58302;SDS011;44109;52.398;7.024;2023-08-06T02:13:40;5.85;;;2.80;;
58302;SDS011;44109;52.398;7.024;2023-08-06T02:16:07;6.43;;;2.90;;
58302;SDS011;44109;52.398;7.024;2023-08-06T02:18:35;5.43;;;3.35;;
58302;SDS011;44109;52.398;7.024;2023-08-06T02:21:02;6.78;;;3.20;;
58302;SDS011;44109;52.398;7.024;2023-08-06T02:23:30;4.40;;;3.00;;
58302;SDS011;44109;52.398;7.024;2023-08-06T02:25:58;4.90;;;2.85;;
58302;SDS011;44109;52.398;7.024;2023-08-06T02:28:29;6.25;;;3.65;;
58302;SDS011;44109;52.398;7.024;2023-08-06T02:30:57;7.40;;;3.30;;
58302;SDS011;44109;52.398;7.024;2023-08-06T02:33:25;4.53;;;2.70;;
58302;SDS011;44109;52.398;7.024;2023-08-06T02:35:58;5.05;;;3.30;;
58302;SDS011;44109;52.398;7.024;2023-08-06T02:38:27;7.28;;;3.67;;
58302;SDS011;44109;52.398;7.024;2023-08-06T02:40:55;4.68;;;3.28;;
58302;SDS011;44109;52.398;7.024;2023-08-06T02:43:22;7.63;;;2.83;;
58302;SDS011;44109;52.398;7.024;2023-08-06T02:45:51;6.43;;;3.35;;
58302;SDS011;44109;52.398;7.024;2023-08-06T02:48:19;4.57;;;2.53;;
58302;SDS011;44109;52.398;7.024;2023-08-06T02:50:46;3.75;;;2.38;;
58302;SDS011;44109;52.398;7.024;2023-08-06T02:53:14;4.70;;;2.83;;
58302;SDS011;44109;52.398;7.024;2023-08-06T02:55:45;5.57;;;2.50;;
58302;SDS011;44109;52.398;7.024;2023-08-06T02:58:14;4.55;;;2.75;;
58302;SDS011;44109;52.398;7.024;2023-08-06T03:00:42;6.03;;;3.67;;
58302;SDS011;44109;52.398;7.024;2023-08-06T03:03:12;6.95;;;3.35;;
58302;SDS011;44109;52.398;7.024;2023-08-06T03:05:40;6.22;;;3.08;;
58302;SDS011;44109;52.398;7.024;2023-08-06T03:08:07;5.28;;;3.22;;
58302;SDS011;44109;52.398;7.024;2023-08-06T03:10:35;4.20;;;2.20;;
58302;SDS011;44109;52.398;7.024;2023-08-06T03:13:03;6.00;;;3.50;;
58302;SDS011;44109;52.398;7.024;2023-08-06T03:15:30;6.22;;;3.17;;
58302;SDS011;44109;52.398;7.024;2023-08-06T03:17:58;6.43;;;3.42;;
58302;SDS011;44109;52.398;7.024;2023-08-06T03:20:27;4.03;;;2.22;;
58302;SDS011;44109;52.398;7.024;2023-08-06T03:22:54;3.58;;;2.50;;
58302;SDS011;44109;52.398;7.024;2023-08-06T03:25:22;6.45;;;3.28;;
58302;SDS011;44109;52.398;7.024;2023-08-06T03:27:49;4.43;;;2.38;;
58302;SDS011;44109;52.398;7.024;2023-08-06T03:30:17;5.03;;;3.15;;
58302;SDS011;44109;52.398;7.024;2023-08-06T03:32:44;6.85;;;3.63;;
58302;SDS011;44109;52.398;7.024;2023-08-06T03:35:13;6.43;;;3.53;;
58302;SDS011;44109;52.398;7.024;2023-08-06T03:37:42;4.22;;;2.40;;
58302;SDS011;44109;52.398;7.024;2023-08-06T03:40:10;5.00;;;3.22;;
58302;SDS011;44109;52.398;7.024;2023-08-06T03:42:38;4.63;;;2.38;;
58302;SDS011;44109;52.398;7.024;2023-08-06T03:45:06;5.70;;;3.70;;
58302;SDS011;44109;52.398;7.024;2023-08-06T03:47:34;5.18;;;2.53;;
58302;SDS011;44109;52.398;7.024;2023-08-06T03:50:02;3.63;;;2.95;;
58302;SDS011;44109;52.398;7.024;2023-08-06T03:52:31;4.80;;;2.83;;
58302;SDS011;44109;52.398;7.024;2023-08-06T03:55:00;5.43;;;2.90;;
58302;SDS011;44109;52.398;7.024;2023-08-06T03:57:28;5.47;;;2.90;;
58302;SDS011;44109;52.398;7.024;2023-08-06T03:59:55;5.10;;;3.85;;
58302;SDS011;44109;52.398;7.024;2023-08-06T04:02:23;5.35;;;2.58;;
58302;SDS011;44109;52.398;7.024;2023-08-06T04:04:51;3.25;;;2.35;;
58302;SDS011;44109;52.398;7.024;2023-08-06T04:07:19;7.70;;;4.20;;
58302;SDS011;44109;52.398;7.024;2023-08-06T04:09:53;6.40;;;3.22;;
58302;SDS011;44109;52.398;7.024;2023-08-06T04:12:24;6.03;;;3.28;;
58302;SDS011;44109;52.398;7.024;2023-08-06T04:14:53;6.97;;;3.92;;
58302;SDS011;44109;52.398;7.024;2023-08-06T04:17:21;10.73;;;3.85;;
58302;SDS011;44109;52.398;7.024;2023-08-06T04:19:50;5.50;;;3.22;;
58302;SDS011;44109;52.398;7.024;2023-08-06T04:22:19;4.95;;;3.40;;
58302;SDS011;44109;52.398;7.024;2023-08-06T04:24:48;7.70;;;4.38;;
58302;SDS011;44109;52.398;7.024;2023-08-06T04:27:16;7.32;;;3.67;;
58302;SDS011;44109;52.398;7.024;2023-08-06T04:29:47;8.68;;;4.20;;
58302;SDS011;44109;52.398;7.024;2023-08-06T04:32:15;4.13;;;2.42;;
58302;SDS011;44109;52.398;7.024;2023-08-06T04:34:43;6.97;;;4.07;;
58302;SDS011;44109;52.398;7.024;2023-08-06T04:37:10;5.65;;;3.10;;
58302;SDS011;44109;52.398;7.024;2023-08-06T04:39:38;5.60;;;3.17;;
58302;SDS011;44109;52.398;7.024;2023-08-06T04:42:06;6.05;;;2.88;;
58302;SDS011;44109;52.398;7.024;2023-08-06T04:44:33;5.18;;;2.90;;
58302;SDS011;44109;52.398;7.024;2023-08-06T04:47:02;7.82;;;3.88;;
58302;SDS011;44109;52.398;7.024;2023-08-06T04:49:30;5.00;;;3.15;;
58302;SDS011;44109;52.398;7.024;2023-08-06T04:51:58;5.82;;;3.20;;
58302;SDS011;44109;52.398;7.024;2023-08-06T04:54:26;6.47;;;3.17;;
58302;SDS011;44109;52.398;7.024;2023-08-06T04:56:53;7.55;;;3.25;;
58302;SDS011;44109;52.398;7.024;2023-08-06T04:59:21;8.00;;;3.75;;
58302;SDS011;44109;52.398;7.024;2023-08-06T05:01:48;7.72;;;3.50;;
58302;SDS011;44109;52.398;7.024;2023-08-06T05:04:17;7.72;;;3.53;;
58302;SDS011;44109;52.398;7.024;2023-08-06T05:06:45;6.97;;;4.40;;
58302;SDS011;44109;52.398;7.024;2023-08-06T05:09:13;8.05;;;4.50;;
58302;SDS011;44109;52.398;7.024;2023-08-06T05:11:40;7.30;;;3.92;;
58302;SDS011;44109;52.398;7.024;2023-08-06T05:14:08;7.55;;;4.15;;
58302;SDS011;44109;52.398;7.024;2023-08-06T05:16:36;7.45;;;3.72;;
58302;SDS011;44109;52.398;7.024;2023-08-06T05:19:03;6.35;;;3.63;;
58302;SDS011;44109;52.398;7.024;2023-08-06T05:21:32;7.63;;;4.32;;
58302;SDS011;44109;52.398;7.024;2023-08-06T05:24:00;6.13;;;3.25;;
58302;SDS011;44109;52.398;7.024;2023-08-06T05:26:27;5.20;;;3.30;;
58302;SDS011;44109;52.398;7.024;2023-08-06T05:28:55;8.20;;;3.60;;
58302;SDS011;44109;52.398;7.024;2023-08-06T05:31:23;5.88;;;3.13;;
58302;SDS011;44109;52.398;7.024;2023-08-06T05:33:51;7.55;;;3.08;;
58302;SDS011;44109;52.398;7.024;2023-08-06T05:36:19;5.13;;;2.95;;
58302;SDS011;44109;52.398;7.024;2023-08-06T05:38:52;6.03;;;3.15;;
58302;SDS011;44109;52.398;7.024;2023-08-06T05:41:20;6.07;;;2.88;;
58302;SDS011;44109;52.398;7.024;2023-08-06T05:43:47;5.80;;;3.67;;
58302;SDS011;44109;52.398;7.024;2023-08-06T05:46:16;4.57;;;3.08;;
58302;SDS011;44109;52.398;7.024;2023-08-06T05:48:44;5.43;;;3.85;;
58302;SDS011;44109;52.398;7.024;2023-08-06T05:51:12;5.07;;;3.17;;
58302;SDS011;44109;52.398;7.024;2023-08-06T05:53:42;4.97;;;3.42;;
58302;SDS011;44109;52.398;7.024;2023-08-06T05:56:14;5.47;;;3.28;;
58302;SDS011;44109;52.398;7.024;2023-08-06T05:58:41;4.15;;;2.85;;
58302;SDS011;44109;52.398;7.024;2023-08-06T06:01:09;5.45;;;3.30;;
58302;SDS011;44109;52.398;7.024;2023-08-06T06:03:36;6.70;;;3.40;;
58302;SDS011;44109;52.398;7.024;2023-08-06T06:06:04;4.38;;;2.42;;
58302;SDS011;44109;52.398;7.024;2023-08-06T06:08:32;9.55;;;3.78;;
58302;SDS011;44109;52.398;7.024;2023-08-06T06:10:59;5.10;;;2.70;;
58302;SDS011;44109;52.398;7.024;2023-08-06T06:13:28;6.57;;;3.17;;
58302;SDS011;44109;52.398;7.024;2023-08-06T06:15:56;3.55;;;2.90;;
58302;SDS011;44109;52.398;7.024;2023-08-06T06:18:24;6.03;;;2.85;;
58302;SDS011;44109;52.398;7.024;2023-08-06T06:20:51;5.00;;;3.17;;
58302;SDS011;44109;52.398;7.024;2023-08-06T06:23:19;3.90;;;2.22;;
58302;SDS011;44109;52.398;7.024;2023-08-06T06:25:47;4.20;;;2.67;;
58302;SDS011;44109;52.398;7.024;2023-08-06T06:28:17;7.05;;;3.63;;
58302;SDS011;44109;52.398;7.024;2023-08-06T06:30:47;5.22;;;2.83;;
58302;SDS011;44109;52.398;7.024;2023-08-06T06:33:15;4.88;;;3.20;;
58302;SDS011;44109;52.398;7.024;2023-08-06T06:35:43;5.68;;;3.20;;
58302;SDS011;44109;52.398;7.024;2023-08-06T06:38:11;5.55;;;3.08;;
58302;SDS011;44109;52.398;7.024;2023-08-06T06:40:38;5.40;;;3.30;;
58302;SDS011;44109;52.398;7.024;2023-08-06T06:43:06;5.25;;;2.65;;
58302;SDS011;44109;52.398;7.024;2023-08-06T06:45:33;5.13;;;2.60;;
58302;SDS011;44109;52.398;7.024;2023-08-06T06:48:02;3.20;;;2.40;;
58302;SDS011;44109;52.398;7.024;2023-08-06T06:50:31;3.78;;;2.47;;
58302;SDS011;44109;52.398;7.024;2023-08-06T06:52:58;5.80;;;2.53;;
58302;SDS011;44109;52.398;7.024;2023-08-06T06:55:26;8.13;;;2.95;;
58302;SDS011;44109;52.398;7.024;2023-08-06T06:57:54;4.60;;;2.47;;
58302;SDS011;44109;52.398;7.024;2023-08-06T07:00:21;5.28;;;2.78;;
58302;SDS011;44109;52.398;7.024;2023-08-06T07:02:49;5.15;;;3.08;;
58302;SDS011;44109;52.398;7.024;2023-08-06T07:05:19;4.75;;;2.50;;
58302;SDS011;44109;52.398;7.024;2023-08-06T07:07:46;4.35;;;3.22;;
58302;SDS011;44109;52.398;7.024;2023-08-06T07:10:14;3.17;;;2.10;;
58302;SDS011;44109;52.398;7.024;2023-08-06T07:12:42;3.60;;;2.35;;
58302;SDS011;44109;52.398;7.024;2023-08-06T07:15:09;5.57;;;3.08;;
58302;SDS011;44109;52.398;7.024;2023-08-06T07:17:38;4.00;;;1.60;;
58302;SDS011;44109;52.398;7.024;2023-08-06T07:20:06;4.70;;;3.10;;
58302;SDS011;44109;52.398;7.024;2023-08-06T07:22:36;4.72;;;2.28;;
58302;SDS011;44109;52.398;7.024;2023-08-06T07:25:04;3.42;;;2.53;;
58302;SDS011;44109;52.398;7.024;2023-08-06T07:27:32;4.25;;;2.45;;
58302;SDS011;44109;52.398;7.024;2023-08-06T07:30:00;5.10;;;2.78;;
58302;SDS011;44109;52.398;7.024;2023-08-06T07:32:28;4.35;;;2.78;;
58302;SDS011;44109;52.398;7.024;2023-08-06T07:34:55;5.10;;;2.53;;
58302;SDS011;44109;52.398;7.024;2023-08-06T07:37:26;3.17;;;2.15;;
58302;SDS011;44109;52.398;7.024;2023-08-06T07:39:56;3.17;;;2.30;;
58302;SDS011;44109;52.398;7.024;2023-08-06T07:42:25;4.18;;;2.90;;
58302;SDS011;44109;52.398;7.024;2023-08-06T07:44:53;4.97;;;2.63;;
58302;SDS011;44109;52.398;7.024;2023-08-06T07:47:23;3.63;;;2.55;;
58302;SDS011;44109;52.398;7.024;2023-08-06T07:49:51;5.00;;;2.42;;
58302;SDS011;44109;52.398;7.024;2023-08-06T07:52:19;4.43;;;2.55;;
58302;SDS011;44109;52.398;7.024;2023-08-06T07:54:47;4.43;;;2.58;;
58302;SDS011;44109;52.398;7.024;2023-08-06T07:57:16;4.38;;;3.33;;
58302;SDS011;44109;52.398;7.024;2023-08-06T07:59:43;7.82;;;3.10;;
58302;SDS011;44109;52.398;7.024;2023-08-06T08:02:11;7.95;;;3.40;;
58302;SDS011;44109;52.398;7.024;2023-08-06T08:04:38;3.70;;;2.45;;
58302;SDS011;44109;52.398;7.024;2023-08-06T08:07:06;4.22;;;2.50;;
58302;SDS011;44109;52.398;7.024;2023-08-06T08:09:36;7.22;;;3.40;;
58302;SDS011;44109;52.398;7.024;2023-08-06T08:12:04;6.28;;;3.72;;
58302;SDS011;44109;52.398;7.024;2023-08-06T08:14:34;5.78;;;2.53;;
58302;SDS011;44109;52.398;7.024;2023-08-06T08:17:02;5.40;;;3.40;;
58302;SDS011;44109;52.398;7.024;2023-08-06T08:19:31;6.10;;;3.15;;
58302;SDS011;44109;52.398;7.024;2023-08-06T08:21:59;5.95;;;3.25;;
58302;SDS011;44109;52.398;7.024;2023-08-06T08:24:27;5.25;;;3.28;;
58302;SDS011;44109;52.398;7.024;2023-08-06T08:26:56;5.03;;;3.35;;
58302;SDS011;44109;52.398;7.024;2023-08-06T08:29:24;5.60;;;3.33;;
58302;SDS011;44109;52.398;7.024;2023-08-06T08:31:53;4.97;;;3.42;;
58302;SDS011;44109;52.398;7.024;2023-08-06T08:34:21;5.88;;;3.33;;
58302;SDS011;44109;52.398;7.024;2023-08-06T08:36:48;6.00;;;3.30;;
58302;SDS011;44109;52.398;7.024;2023-08-06T08:39:16;4.47;;;2.60;;
58302;SDS011;44109;52.398;7.024;2023-08-06T08:41:43;4.03;;;2.65;;
58302;SDS011;44109;52.398;7.024;2023-08-06T08:44:11;5.60;;;3.72;;
58302;SDS011;44109;52.398;7.024;2023-08-06T08:46:43;6.28;;;3.88;;
58302;SDS011;44109;52.398;7.024;2023-08-06T08:49:16;5.85;;;3.10;;
58302;SDS011;44109;52.398;7.024;2023-08-06T08:51:47;4.88;;;3.53;;
58302;SDS011;44109;52.398;7.024;2023-08-06T08:54:20;4.30;;;3.03;;
58302;SDS011;44109;52.398;7.024;2023-08-06T08:56:52;5.10;;;3.03;;
58302;SDS011;44109;52.398;7.024;2023-08-06T08:59:20;5.95;;;3.58;;
58302;SDS011;44109;52.398;7.024;2023-08-06T09:01:48;6.28;;;3.35;;
58302;SDS011;44109;52.398;7.024;2023-08-06T09:04:19;5.22;;;3.10;;
58302;SDS011;44109;52.398;7.024;2023-08-06T09:06:50;6.40;;;3.22;;
58302;SDS011;44109;52.398;7.024;2023-08-06T09:09:21;4.13;;;2.88;;
58302;SDS011;44109;52.398;7.024;2023-08-06T09:11:55;4.20;;;2.83;;
58302;SDS011;44109;52.398;7.024;2023-08-06T09:14:28;5.28;;;3.30;;
58302;SDS011;44109;52.398;7.024;2023-08-06T09:16:56;5.07;;;2.88;;
58302;SDS011;44109;52.398;7.024;2023-08-06T09:19:25;4.95;;;3.80;;
58302;SDS011;44109;52.398;7.024;2023-08-06T09:21:55;5.40;;;3.35;;
58302;SDS011;44109;52.398;7.024;2023-08-06T09:24:23;5.10;;;3.08;;
58302;SDS011;44109;52.398;7.024;2023-08-06T09:26:52;5.47;;;3.13;;
58302;SDS011;44109;52.398;7.024;2023-08-06T09:29:20;4.78;;;3.00;;
58302;SDS011;44109;52.398;7.024;2023-08-06T09:31:48;4.82;;;2.88;;
58302;SDS011;44109;52.398;7.024;2023-08-06T09:34:18;6.22;;;3.30;;
58302;SDS011;44109;52.398;7.024;2023-08-06T09:36:50;5.15;;;3.20;;
58302;SDS011;44109;52.398;7.024;2023-08-06T09:39:19;5.70;;;3.60;;
58302;SDS011;44109;52.398;7.024;2023-08-06T09:41:48;5.88;;;3.25;;
58302;SDS011;44109;52.398;7.024;2023-08-06T09:44:23;4.97;;;3.47;;
58302;SDS011;44109;52.398;7.024;2023-08-06T09:46:54;5.90;;;3.30;;
58302;SDS011;44109;52.398;7.024;2023-08-06T09:49:25;5.43;;;2.92;;
58302;SDS011;44109;52.398;7.024;2023-08-06T09:51:55;6.53;;;4.03;;
58302;SDS011;44109;52.398;7.024;2023-08-06T09:54:25;4.75;;;3.38;;
58302;SDS011;44109;52.398;7.024;2023-08-06T09:56:56;4.78;;;3.35;;
58302;SDS011;44109;52.398;7.024;2023-08-06T09:59:24;5.57;;;3.65;;
58302;SDS011;44109;52.398;7.024;2023-08-06T10:01:52;4.75;;;2.80;;
58302;SDS011;44109;52.398;7.024;2023-08-06T10:04:21;6.45;;;3.53;;
58302;SDS011;44109;52.398;7.024;2023-08-06T10:06:50;4.43;;;3.03;;
58302;SDS011;44109;52.398;7.024;2023-08-06T10:09:21;6.00;;;3.78;;
58302;SDS011;44109;52.398;7.024;2023-08-06T10:11:50;5.35;;;3.42;;
58302;SDS011;44109;52.398;7.024;2023-08-06T10:14:20;7.18;;;3.90;;
58302;SDS011;44109;52.398;7.024;2023-08-06T10:16:54;5.05;;;3.55;;
58302;SDS011;44109;52.398;7.024;2023-08-06T10:19:24;4.25;;;3.15;;
58302;SDS011;44109;52.398;7.024;2023-08-06T10:22:10;3.72;;;3.10;;
58302;SDS011;44109;52.398;7.024;2023-08-06T10:24:50;5.45;;;3.20;;
58302;SDS011;44109;52.398;7.024;2023-08-06T10:27:23;6.97;;;4.25;;
58302;SDS011;44109;52.398;7.024;2023-08-06T10:32:51;11.20;;;5.13;;
58302;SDS011;44109;52.398;7.024;2023-08-06T10:35:30;11.57;;;4.97;;
58302;SDS011;44109;52.398;7.024;2023-08-06T10:38:03;7.37;;;4.47;;
58302;SDS011;44109;52.398;7.024;2023-08-06T10:40:34;11.07;;;5.28;;
58302;SDS011;44109;52.398;7.024;2023-08-06T10:43:03;9.48;;;5.40;;
58302;SDS011;44109;52.398;7.024;2023-08-06T10:45:34;8.68;;;5.45;;
58302;SDS011;44109;52.398;7.024;2023-08-06T10:48:03;9.65;;;4.70;;
58302;SDS011;44109;52.398;7.024;2023-08-06T10:50:31;7.47;;;5.05;;
58302;SDS011;44109;52.398;7.024;2023-08-06T10:53:03;9.65;;;4.38;;
58302;SDS011;44109;52.398;7.024;2023-08-06T10:55:34;6.20;;;4.63;;
58302;SDS011;44109;52.398;7.024;2023-08-06T10:58:04;5.72;;;4.22;;
58302;SDS011;44109;52.398;7.024;2023-08-06T11:00:31;7.88;;;4.20;;
58302;SDS011;44109;52.398;7.024;2023-08-06T11:03:00;7.75;;;5.15;;
58302;SDS011;44109;52.398;7.024;2023-08-06T11:05:27;5.60;;;4.00;;
58302;SDS011;44109;52.398;7.024;2023-08-06T11:07:56;6.28;;;4.32;;
58302;SDS011;44109;52.398;7.024;2023-08-06T11:10:23;7.20;;;4.55;;
58302;SDS011;44109;52.398;7.024;2023-08-06T11:12:52;6.55;;;3.97;;
58302;SDS011;44109;52.398;7.024;2023-08-06T11:15:20;5.30;;;3.42;;
58302;SDS011;44109;52.398;7.024;2023-08-06T11:17:48;6.50;;;3.58;;
58302;SDS011;44109;52.398;7.024;2023-08-06T11:20:17;6.05;;;3.42;;
58302;SDS011;44109;52.398;7.024;2023-08-06T11:22:48;3.30;;;2.22;;
58302;SDS011;44109;52.398;7.024;2023-08-06T11:25:15;4.20;;;2.38;;
58302;SDS011;44109;52.398;7.024;2023-08-06T11:27:47;8.02;;;2.88;;
58302;SDS011;44109;52.398;7.024;2023-08-06T11:30:16;3.80;;;2.67;;
58302;SDS011;44109;52.398;7.024;2023-08-06T11:32:46;4.72;;;2.35;;
58302;SDS011;44109;52.398;7.024;2023-08-06T11:35:15;4.05;;;1.90;;
58302;SDS011;44109;52.398;7.024;2023-08-06T11:37:43;3.13;;;2.03;;
58302;SDS011;44109;52.398;7.024;2023-08-06T11:40:13;4.07;;;1.65;;
58302;SDS011;44109;52.398;7.024;2023-08-06T11:42:42;2.60;;;1.58;;
58302;SDS011;44109;52.398;7.024;2023-08-06T11:45:10;3.03;;;1.95;;
58302;SDS011;44109;52.398;7.024;2023-08-06T11:47:49;5.03;;;2.65;;
58302;SDS011;44109;52.398;7.024;2023-08-06T11:50:22;2.63;;;1.95;;
58302;SDS011;44109;52.398;7.024;2023-08-06T11:52:52;2.13;;;1.40;;
58302;SDS011;44109;52.398;7.024;2023-08-06T11:55:23;3.00;;;1.48;;
58302;SDS011;44109;52.398;7.024;2023-08-06T11:57:52;3.22;;;1.38;;
58302;SDS011;44109;52.398;7.024;2023-08-06T12:00:22;7.15;;;2.40;;
58302;SDS011;44109;52.398;7.024;2023-08-06T12:02:52;1.75;;;1.10;;
58302;SDS011;44109;52.398;7.024;2023-08-06T12:05:21;2.75;;;1.58;;
58302;SDS011;44109;52.398;7.024;2023-08-06T12:07:50;2.58;;;1.38;;
58302;SDS011;44109;52.398;7.024;2023-08-06T12:10:19;4.63;;;1.17;;
58302;SDS011;44109;52.398;7.024;2023-08-06T12:12:49;2.90;;;1.77;;
58302;SDS011;44109;52.398;7.024;2023-08-06T12:15:17;2.72;;;1.83;;
58302;SDS011;44109;52.398;7.024;2023-08-06T12:17:46;1.98;;;1.33;;
58302;SDS011;44109;52.398;7.024;2023-08-06T12:20:14;2.85;;;1.90;;
58302;SDS011;44109;52.398;7.024;2023-08-06T12:22:42;3.33;;;1.75;;
58302;SDS011;44109;52.398;7.024;2023-08-06T12:25:11;3.67;;;2.05;;
58302;SDS011;44109;52.398;7.024;2023-08-06T12:27:40;2.13;;;1.70;;
58302;SDS011;44109;52.398;7.024;2023-08-06T12:30:09;4.20;;;2.78;;
58302;SDS011;44109;52.398;7.024;2023-08-06T12:32:39;4.88;;;3.08;;
58302;SDS011;44109;52.398;7.024;2023-08-06T12:35:08;4.07;;;2.47;;
58302;SDS011;44109;52.398;7.024;2023-08-06T12:37:36;3.78;;;2.47;;
58302;SDS011;44109;52.398;7.024;2023-08-06T12:40:05;3.40;;;2.38;;
58302;SDS011;44109;52.398;7.024;2023-08-06T12:42:34;3.65;;;2.33;;
58302;SDS011;44109;52.398;7.024;2023-08-06T12:45:01;3.15;;;2.08;;
58302;SDS011;44109;52.398;7.024;2023-08-06T12:47:29;3.40;;;2.17;;
58302;SDS011;44109;52.398;7.024;2023-08-06T12:49:57;2.53;;;1.90;;
58302;SDS011;44109;52.398;7.024;2023-08-06T12:52:26;2.88;;;1.77;;
58302;SDS011;44109;52.398;7.024;2023-08-06T12:54:53;2.95;;;1.60;;
58302;SDS011;44109;52.398;7.024;2023-08-06T12:57:21;2.75;;;1.90;;
58302;SDS011;44109;52.398;7.024;2023-08-06T12:59:48;5.30;;;2.28;;
58302;SDS011;44109;52.398;7.024;2023-08-06T13:02:16;3.75;;;2.17;;
58302;SDS011;44109;52.398;7.024;2023-08-06T13:04:45;2.13;;;1.50;;
58302;SDS011;44109;52.398;7.024;2023-08-06T13:07:13;2.88;;;2.15;;
58302;SDS011;44109;52.398;7.024;2023-08-06T13:09:42;3.50;;;2.10;;
58302;SDS011;44109;52.398;7.024;2023-08-06T13:12:10;2.92;;;1.70;;
58302;SDS011;44109;52.398;7.024;2023-08-06T13:14:37;2.65;;;1.92;;
58302;SDS011;44109;52.398;7.024;2023-08-06T13:17:05;4.18;;;2.42;;
58302;SDS011;44109;52.398;7.024;2023-08-06T13:19:34;3.95;;;2.67;;
58302;SDS011;44109;52.398;7.024;2023-08-06T13:22:02;3.05;;;1.88;;
58302;SDS011;44109;52.398;7.024;2023-08-06T13:24:32;5.72;;;2.35;;
58302;SDS011;44109;52.398;7.024;2023-08-06T13:27:02;3.10;;;1.98;;
58302;SDS011;44109;52.398;7.024;2023-08-06T13:29:29;2.53;;;2.03;;
58302;SDS011;44109;52.398;7.024;2023-08-06T13:31:57;2.85;;;2.03;;
58302;SDS011;44109;52.398;7.024;2023-08-06T13:34:25;3.60;;;1.70;;
58302;SDS011;44109;52.398;7.024;2023-08-06T13:36:52;3.08;;;1.65;;
58302;SDS011;44109;52.398;7.024;2023-08-06T13:39:20;2.55;;;1.92;;
58302;SDS011;44109;52.398;7.024;2023-08-06T13:41:48;2.58;;;1.70;;
58302;SDS011;44109;52.398;7.024;2023-08-06T13:44:16;2.60;;;1.80;;
58302;SDS011;44109;52.398;7.024;2023-08-06T13:46:44;3.50;;;1.65;;
58302;SDS011;44109;52.398;7.024;2023-08-06T13:49:12;2.40;;;1.70;;
58302;SDS011;44109;52.398;7.024;2023-08-06T13:51:40;2.65;;;1.50;;
58302;SDS011;44109;52.398;7.024;2023-08-06T13:54:07;4.07;;;1.77;;
58302;SDS011;44109;52.398;7.024;2023-08-06T13:56:35;2.17;;;1.55;;
58302;SDS011;44109;52.398;7.024;2023-08-06T13:59:03;2.22;;;1.50;;
58302;SDS011;44109;52.398;7.024;2023-08-06T14:01:33;2.22;;;1.33;;
58302;SDS011;44109;52.398;7.024;2023-08-06T14:04:01;2.58;;;1.83;;
58302;SDS011;44109;52.398;7.024;2023-08-06T14:06:29;2.70;;;2.03;;
58302;SDS011;44109;52.398;7.024;2023-08-06T14:08:57;3.90;;;1.75;;
58302;SDS011;44109;52.398;7.024;2023-08-06T14:11:25;2.05;;;0.82;;
58302;SDS011;44109;52.398;7.024;2023-08-06T14:13:52;1.73;;;1.23;;
58302;SDS011;44109;52.398;7.024;2023-08-06T14:16:20;1.10;;;0.95;;
58302;SDS011;44109;52.398;7.024;2023-08-06T14:18:49;2.33;;;0.98;;
58302;SDS011;44109;52.398;7.024;2023-08-06T14:21:16;1.85;;;1.30;;
58302;SDS011;44109;52.398;7.024;2023-08-06T14:23:44;2.00;;;1.05;;
58302;SDS011;44109;52.398;7.024;2023-08-06T14:26:11;1.75;;;0.95;;
58302;SDS011;44109;52.398;7.024;2023-08-06T14:28:41;1.35;;;0.95;;
58302;SDS011;44109;52.398;7.024;2023-08-06T14:31:08;1.35;;;1.00;;
58302;SDS011;44109;52.398;7.024;2023-08-06T14:33:36;1.23;;;0.70;;
58302;SDS011;44109;52.398;7.024;2023-08-06T14:36:05;2.05;;;1.02;;
58302;SDS011;44109;52.398;7.024;2023-08-06T14:38:32;1.10;;;0.73;;
58302;SDS011;44109;52.398;7.024;2023-08-06T14:41:00;1.48;;;0.93;;
58302;SDS011;44109;52.398;7.024;2023-08-06T14:43:28;2.05;;;1.05;;
58302;SDS011;44109;52.398;7.024;2023-08-06T14:45:55;1.83;;;1.00;;
58302;SDS011;44109;52.398;7.024;2023-08-06T14:48:23;1.75;;;1.15;;
58302;SDS011;44109;52.398;7.024;2023-08-06T14:50:50;1.30;;;0.73;;
58302;SDS011;44109;52.398;7.024;2023-08-06T14:53:19;1.02;;;0.60;;
58302;SDS011;44109;52.398;7.024;2023-08-06T14:55:47;2.40;;;1.40;;
58302;SDS011;44109;52.398;7.024;2023-08-06T14:58:15;1.98;;;0.90;;
58302;SDS011;44109;52.398;7.024;2023-08-06T15:00:42;1.65;;;1.20;;